createdAt,value
2018-06-24T00:00:57.747Z,15.39
2018-06-24T00:03:25.581Z,15.34
2018-06-24T00:05:53.454Z,15.35
2018-06-24T00:18:25.069Z,15.35
2018-06-24T00:20:52.927Z,15.21
2018-06-24T00:23:20.779Z,15.25
2018-06-24T00:25:48.608Z,15.27
2018-06-24T00:28:16.439Z,15.22
2018-06-24T00:30:44.280Z,15.27
2018-06-24T00:33:12.114Z,15.28
2018-06-24T00:35:39.914Z,15.31
2018-06-24T00:38:07.781Z,15.25
2018-06-24T00:40:35.648Z,15.26
2018-06-24T00:43:03.493Z,15.25
2018-06-24T00:45:31.416Z,15.30
2018-06-24T00:47:59.262Z,15.27
2018-06-24T00:50:27.071Z,15.26
2018-06-24T00:52:54.900Z,15.26
2018-06-24T00:55:22.782Z,15.21
2018-06-24T00:57:50.594Z,15.12
2018-06-24T01:00:18.727Z,15.08
2018-06-24T01:02:46.539Z,15.19
2018-06-24T01:05:14.714Z,15.26
2018-06-24T01:07:43.715Z,15.27
2018-06-24T01:10:11.529Z,15.33
2018-06-24T01:12:39.887Z,15.36
2018-06-24T01:15:07.972Z,15.16
2018-06-24T01:17:35.799Z,15.10
2018-06-24T01:20:04.911Z,15.11
2018-06-24T01:22:32.761Z,14.94
2018-06-24T01:25:00.585Z,14.79
2018-06-24T01:27:28.406Z,14.67
2018-06-24T01:29:56.224Z,14.67
2018-06-24T01:32:24.523Z,14.61
2018-06-24T01:34:52.906Z,14.49
2018-06-24T01:37:20.735Z,14.34
2018-06-24T01:39:48.553Z,14.18
2018-06-24T01:42:16.418Z,14.01
2018-06-24T01:44:44.282Z,13.91
2018-06-24T01:47:12.140Z,13.99
2018-06-24T01:49:39.985Z,13.98
2018-06-24T01:52:07.815Z,13.80
2018-06-24T01:54:35.706Z,13.71
2018-06-24T01:57:03.548Z,13.65
2018-06-24T01:59:31.372Z,13.64
2018-06-24T02:02:00.120Z,13.66
2018-06-24T02:04:27.973Z,13.63
2018-06-24T02:06:55.834Z,13.62
2018-06-24T02:09:23.671Z,13.55
2018-06-24T02:11:51.517Z,13.49
2018-06-24T02:14:19.386Z,13.42
2018-06-24T02:16:47.218Z,13.32
2018-06-24T02:19:15.139Z,13.29
2018-06-24T02:21:42.981Z,13.17
2018-06-24T02:24:10.848Z,13.12
2018-06-24T02:26:38.709Z,13.04
2018-06-24T02:29:06.568Z,13.10
2018-06-24T02:31:34.524Z,13.20
2018-06-24T02:34:02.373Z,13.24
2018-06-24T02:36:30.295Z,13.30
2018-06-24T02:38:58.187Z,13.40
2018-06-24T02:41:26.127Z,13.38
2018-06-24T02:43:54.106Z,13.35
2018-06-24T02:46:21.887Z,13.37
2018-06-24T02:48:49.718Z,13.39
2018-06-24T02:51:17.575Z,13.40
2018-06-24T02:53:45.421Z,13.39
2018-06-24T02:56:13.293Z,13.76
2018-06-24T02:58:41.178Z,14.96
2018-06-24T03:01:09.029Z,17.25
2018-06-24T03:03:36.856Z,18.35
2018-06-24T03:06:04.694Z,19.53
2018-06-24T03:08:32.627Z,20.57
2018-06-24T03:11:00.480Z,21.10
2018-06-24T03:13:28.330Z,20.54
2018-06-24T03:15:56.192Z,19.87
2018-06-24T03:18:24.071Z,20.18
2018-06-24T03:20:51.930Z,21.17
2018-06-24T03:23:19.756Z,22.33
2018-06-24T03:25:47.570Z,22.47
2018-06-24T03:28:15.427Z,22.96
2018-06-24T03:30:43.274Z,23.60
2018-06-24T03:33:11.121Z,24.03
2018-06-24T03:35:39.319Z,25.67
2018-06-24T03:38:07.164Z,26.87
2018-06-24T03:40:35.012Z,27.61
2018-06-24T03:43:02.871Z,26.67
2018-06-24T03:45:30.754Z,27.51
2018-06-24T03:47:58.565Z,28.61
2018-06-24T03:50:26.424Z,27.08
2018-06-24T03:52:54.283Z,26.50
2018-06-24T03:55:22.143Z,26.42
2018-06-24T03:57:49.991Z,26.66
2018-06-24T04:00:17.835Z,24.61
2018-06-24T04:02:45.655Z,24.84
2018-06-24T04:05:13.504Z,22.34
2018-06-24T04:07:41.346Z,21.44
2018-06-24T04:10:09.259Z,23.49
2018-06-24T04:12:37.119Z,24.46
2018-06-24T04:15:05.054Z,25.95
2018-06-24T04:17:32.873Z,25.73
2018-06-24T04:20:00.720Z,26.82
2018-06-24T04:22:28.580Z,27.43
2018-06-24T04:24:56.408Z,26.45
2018-06-24T04:27:24.282Z,22.46
2018-06-24T04:29:52.143Z,22.06
2018-06-24T04:32:20.099Z,20.43
2018-06-24T04:34:47.964Z,19.53
2018-06-24T04:37:15.799Z,19.34
2018-06-24T04:39:43.641Z,18.77
2018-06-24T04:42:11.492Z,18.15
2018-06-24T04:44:39.344Z,18.42
2018-06-24T04:47:07.246Z,20.36
2018-06-24T04:49:35.099Z,25.67
2018-06-24T04:52:03.005Z,26.05
2018-06-24T04:54:30.844Z,28.73
2018-06-24T04:56:58.676Z,30.05
2018-06-24T04:59:26.490Z,28.76
2018-06-24T05:01:54.669Z,28.92
2018-06-24T05:04:22.512Z,29.16
2018-06-24T05:06:50.398Z,30.50
2018-06-24T05:09:18.251Z,28.83
2018-06-24T05:11:46.139Z,25.01
2018-06-24T05:14:13.985Z,25.87
2018-06-24T05:16:41.835Z,28.95
2018-06-24T05:19:09.782Z,27.33
2018-06-24T05:21:37.637Z,24.06
2018-06-24T05:24:05.485Z,24.00
2018-06-24T05:26:33.396Z,22.99
2018-06-24T05:29:01.272Z,23.33
2018-06-24T05:31:29.184Z,23.87
2018-06-24T05:33:57.046Z,23.61
2018-06-24T05:36:24.909Z,23.90
2018-06-24T05:38:52.739Z,24.69
2018-06-24T05:41:20.603Z,25.25
2018-06-24T05:43:48.533Z,25.99
2018-06-24T05:46:16.374Z,28.10
2018-06-24T05:48:44.279Z,27.42
2018-06-24T05:51:12.152Z,27.40
2018-06-24T05:53:39.996Z,27.08
2018-06-24T05:56:07.837Z,24.96
2018-06-24T05:58:35.674Z,23.62
2018-06-24T06:01:03.532Z,24.47
2018-06-24T06:03:31.411Z,27.79
2018-06-24T06:05:59.266Z,30.54
2018-06-24T06:08:27.170Z,31.43
2018-06-24T06:10:55.061Z,30.72
2018-06-24T06:13:22.932Z,30.60
2018-06-24T06:15:50.754Z,29.81
2018-06-24T06:18:18.572Z,29.88
2018-06-24T06:20:46.419Z,30.37
2018-06-24T06:23:14.286Z,28.39
2018-06-24T06:25:42.178Z,28.73
2018-06-24T06:28:10.032Z,29.97
2018-06-24T06:30:37.940Z,30.24
2018-06-24T06:33:05.925Z,30.76
2018-06-24T06:35:33.770Z,29.89
2018-06-24T06:38:01.682Z,27.69
2018-06-24T06:40:29.526Z,27.73
2018-06-24T06:42:57.413Z,30.19
2018-06-24T06:45:25.335Z,31.24
2018-06-24T06:47:53.154Z,31.46
2018-06-24T06:50:20.997Z,31.18
2018-06-24T06:52:48.851Z,31.07
2018-06-24T06:55:16.754Z,28.63
2018-06-24T06:57:44.623Z,29.39
2018-06-24T07:00:12.492Z,28.44
2018-06-24T07:02:40.350Z,28.82
2018-06-24T07:05:08.208Z,27.55
2018-06-24T07:07:36.095Z,28.40
2018-06-24T07:10:03.986Z,29.29
2018-06-24T07:12:31.819Z,28.44
2018-06-24T07:14:59.643Z,28.79
2018-06-24T07:17:27.477Z,25.93
2018-06-24T07:19:55.390Z,25.93
2018-06-24T07:22:23.195Z,27.14
2018-06-24T07:24:50.998Z,26.80
2018-06-24T07:27:18.820Z,26.64
2018-06-24T07:29:46.639Z,27.51
2018-06-24T07:32:14.519Z,26.55
2018-06-24T07:34:42.327Z,28.72
2018-06-24T07:37:10.215Z,27.45
2018-06-24T07:39:38.037Z,27.36
2018-06-24T07:42:05.906Z,26.16
2018-06-24T07:44:33.799Z,27.74
2018-06-24T07:47:01.655Z,26.59
2018-06-24T07:49:29.477Z,25.21
2018-06-24T07:51:57.339Z,25.75
2018-06-24T07:54:25.275Z,26.64
2018-06-24T07:56:53.151Z,25.83
2018-06-24T07:59:20.993Z,27.74
2018-06-24T08:01:48.882Z,28.83
2018-06-24T08:04:16.749Z,28.63
2018-06-24T08:06:44.545Z,28.18
2018-06-24T08:09:12.886Z,26.70
2018-06-24T08:11:41.407Z,27.14
2018-06-24T08:14:09.497Z,28.75
2018-06-24T08:16:37.684Z,28.80
2018-06-24T08:19:05.743Z,27.84
2018-06-24T08:21:33.567Z,26.27
2018-06-24T08:24:01.435Z,25.68
2018-06-24T08:26:29.356Z,26.78
2018-06-24T08:28:57.186Z,27.96
2018-06-24T08:31:25.114Z,27.65
2018-06-24T08:33:52.941Z,28.22
2018-06-24T08:36:20.809Z,27.29
2018-06-24T08:38:48.790Z,26.65
2018-06-24T08:41:16.607Z,28.06
2018-06-24T08:43:44.448Z,28.67
2018-06-24T08:46:12.274Z,28.69
2018-06-24T08:48:40.112Z,27.38
2018-06-24T08:51:07.950Z,27.98
2018-06-24T08:53:35.783Z,28.35
2018-06-24T08:56:03.942Z,27.65
2018-06-24T08:58:31.793Z,28.77
2018-06-24T09:00:59.625Z,28.77
2018-06-24T09:03:27.449Z,27.96
2018-06-24T09:05:55.333Z,28.21
2018-06-24T09:08:23.214Z,28.12
2018-06-24T09:10:51.034Z,27.51
2018-06-24T09:13:18.880Z,27.65
2018-06-24T09:15:46.744Z,27.55
2018-06-24T09:18:14.614Z,27.11
2018-06-24T09:20:42.419Z,27.50
2018-06-24T09:23:10.275Z,28.15
2018-06-24T09:25:38.134Z,27.98
2018-06-24T09:28:06.157Z,28.01
2018-06-24T09:30:34.003Z,27.86
2018-06-24T09:33:01.868Z,27.29
2018-06-24T09:35:29.702Z,26.78
2018-06-24T09:37:57.533Z,27.25
2018-06-24T09:40:25.374Z,26.60
2018-06-24T09:42:53.282Z,27.56
2018-06-24T09:45:21.219Z,28.13
2018-06-24T09:47:49.046Z,29.18
2018-06-24T09:50:16.891Z,28.44
2018-06-24T09:52:44.796Z,27.20
2018-06-24T09:55:12.649Z,27.17
2018-06-24T09:57:40.486Z,27.29
2018-06-24T10:00:12.801Z,27.49
2018-06-24T10:02:40.713Z,28.78
2018-06-24T10:05:08.531Z,29.86
2018-06-24T10:07:36.368Z,29.91
2018-06-24T10:10:04.194Z,30.25
2018-06-24T10:12:32.062Z,30.57
2018-06-24T10:14:59.948Z,30.71
2018-06-24T10:17:27.907Z,29.79
2018-06-24T10:19:55.714Z,30.52
2018-06-24T10:22:23.544Z,30.11
2018-06-24T10:24:51.367Z,30.40
2018-06-24T10:27:19.229Z,30.49
2018-06-24T10:29:47.043Z,31.48
2018-06-24T10:32:14.906Z,32.38
2018-06-24T10:34:42.745Z,32.59
2018-06-24T10:37:10.613Z,31.05
2018-06-24T10:39:38.431Z,30.17
2018-06-24T10:42:06.255Z,29.68
2018-06-24T10:44:34.114Z,30.67
2018-06-24T10:47:01.926Z,31.10
2018-06-24T10:49:29.762Z,30.71
2018-06-24T10:51:57.639Z,29.65
2018-06-24T10:54:25.426Z,30.65
2018-06-24T10:56:53.314Z,30.62
2018-06-24T10:59:21.135Z,31.01
2018-06-24T11:01:49.319Z,30.52
2018-06-24T11:04:17.199Z,29.55
2018-06-24T11:06:45.104Z,30.11
2018-06-24T11:09:12.975Z,29.66
2018-06-24T11:11:40.815Z,28.41
2018-06-24T11:14:08.657Z,28.42
2018-06-24T11:16:36.537Z,28.19
2018-06-24T11:19:04.388Z,28.14
2018-06-24T11:21:32.249Z,28.40
2018-06-24T11:24:00.145Z,28.52
2018-06-24T11:26:28.186Z,28.35
2018-06-24T11:28:56.002Z,28.27
2018-06-24T11:31:23.813Z,29.34
2018-06-24T11:33:51.656Z,30.02
2018-06-24T11:36:19.538Z,29.60
2018-06-24T11:38:47.403Z,29.98
2018-06-24T11:41:15.241Z,29.78
2018-06-24T11:43:43.066Z,30.37
2018-06-24T11:46:10.913Z,29.11
2018-06-24T11:48:38.755Z,29.82
2018-06-24T11:51:06.631Z,29.91
2018-06-24T11:53:34.488Z,29.70
2018-06-24T11:56:02.335Z,30.40
2018-06-24T11:58:30.274Z,29.33
2018-06-24T12:00:58.086Z,28.57
2018-06-24T12:03:26.093Z,27.91
2018-06-24T12:05:54.000Z,27.89
2018-06-24T12:08:21.890Z,28.60
2018-06-24T12:10:50.149Z,29.62
2018-06-24T12:13:18.055Z,28.83
2018-06-24T12:15:45.949Z,28.91
2018-06-24T12:18:13.850Z,29.95
2018-06-24T12:20:41.899Z,30.32
2018-06-24T12:23:09.830Z,30.22
2018-06-24T12:25:37.733Z,30.67
2018-06-24T12:28:05.634Z,30.97
2018-06-24T12:30:33.486Z,30.41
2018-06-24T12:33:01.338Z,29.57
2018-06-24T12:35:29.178Z,28.33
2018-06-24T12:37:57.052Z,28.25
2018-06-24T12:40:31.330Z,29.16
2018-06-24T12:43:00.383Z,28.62
2018-06-24T12:45:29.568Z,28.88
2018-06-24T12:47:57.663Z,28.93
2018-06-24T12:50:25.657Z,27.91
2018-06-24T12:52:53.626Z,28.30
2018-06-24T12:55:22.529Z,28.39
2018-06-24T12:57:50.364Z,27.61
2018-06-24T13:00:18.630Z,28.52
2018-06-24T13:02:46.074Z,29.47
2018-06-24T13:05:13.903Z,29.15
2018-06-24T13:07:42.055Z,27.82
2018-06-24T13:10:09.930Z,28.13
2018-06-24T13:12:37.792Z,27.57
2018-06-24T13:15:06.343Z,27.52
2018-06-24T13:17:34.243Z,27.25
2018-06-24T13:20:03.791Z,28.59
2018-06-24T13:22:31.693Z,28.93
2018-06-24T13:24:59.552Z,29.56
2018-06-24T13:27:27.391Z,30.66
2018-06-24T13:29:55.233Z,28.95
2018-06-24T13:32:24.113Z,29.14
2018-06-24T13:34:51.987Z,29.46
2018-06-24T13:37:20.176Z,29.12
2018-06-24T13:39:48.169Z,29.47
2018-06-24T13:42:16.366Z,29.42
2018-06-24T13:44:44.688Z,27.90
2018-06-24T13:47:13.290Z,26.97
2018-06-24T13:49:42.206Z,25.95
2018-06-24T13:52:10.689Z,25.51
2018-06-24T13:54:38.490Z,25.87
2018-06-24T13:57:06.319Z,25.70
2018-06-24T13:59:34.178Z,26.22
2018-06-24T14:02:02.017Z,26.00
2018-06-24T14:04:29.846Z,25.66
2018-06-24T14:06:57.680Z,26.14
2018-06-24T14:09:25.575Z,26.71
2018-06-24T14:11:53.435Z,27.16
2018-06-24T14:14:21.332Z,27.18
2018-06-24T14:16:49.162Z,26.17
2018-06-24T14:19:16.994Z,25.76
2018-06-24T14:21:44.818Z,26.33
2018-06-24T14:24:12.682Z,27.18
2018-06-24T14:26:40.546Z,27.56
2018-06-24T14:29:08.437Z,27.12
2018-06-24T14:31:36.288Z,25.86
2018-06-24T14:34:04.300Z,26.18
2018-06-24T14:36:32.215Z,26.75
2018-06-24T14:38:59.997Z,26.60
2018-06-24T14:41:27.833Z,26.81
2018-06-24T14:43:55.679Z,26.67
2018-06-24T14:46:23.512Z,26.63
2018-06-24T14:48:51.340Z,26.32
2018-06-24T14:51:19.192Z,26.22
2018-06-24T14:53:47.029Z,26.81
2018-06-24T14:56:15.065Z,26.82
2018-06-24T14:58:42.941Z,26.56
2018-06-24T15:01:10.814Z,26.67
2018-06-24T15:03:38.662Z,26.81
2018-06-24T15:06:06.515Z,27.10
2018-06-24T15:08:34.360Z,27.08
2018-06-24T15:11:02.296Z,26.73
2018-06-24T15:13:30.198Z,26.58
2018-06-24T15:15:58.025Z,27.04
2018-06-24T15:18:25.931Z,27.38
2018-06-24T15:20:53.962Z,27.66
2018-06-24T15:23:22.075Z,27.75
2018-06-24T15:25:50.070Z,27.30
2018-06-24T15:28:17.901Z,26.99
2018-06-24T15:30:45.910Z,25.63
2018-06-24T15:33:14.077Z,25.76
2018-06-24T15:35:42.011Z,26.17
2018-06-24T15:38:09.831Z,26.10
2018-06-24T15:40:37.712Z,26.42
2018-06-24T15:43:05.557Z,26.75
2018-06-24T15:45:33.412Z,26.94
2018-06-24T15:48:01.327Z,26.82
2018-06-24T15:50:29.197Z,26.37
2018-06-24T15:52:57.049Z,25.79
2018-06-24T15:55:24.869Z,26.31
2018-06-24T15:57:52.700Z,26.43
2018-06-24T16:00:20.553Z,26.19
2018-06-24T16:02:48.367Z,25.89
2018-06-24T16:05:16.289Z,26.05
2018-06-24T16:07:44.170Z,25.47
2018-06-24T16:10:12.101Z,25.80
2018-06-24T16:12:39.977Z,25.55
2018-06-24T16:15:08.348Z,25.74
2018-06-24T16:17:36.728Z,25.65
2018-06-24T16:20:04.752Z,25.09
2018-06-24T16:22:34.192Z,25.35
2018-06-24T16:25:03.164Z,25.65
2018-06-24T16:27:31.689Z,25.79
2018-06-24T16:30:01.259Z,25.52
2018-06-24T16:32:31.040Z,25.26
2018-06-24T16:35:00.394Z,25.36
2018-06-24T16:37:28.259Z,24.95
2018-06-24T16:39:56.197Z,24.78
2018-06-24T16:42:24.063Z,24.61
2018-06-24T16:44:51.927Z,24.54
2018-06-24T16:47:20.520Z,24.14
2018-06-24T16:49:48.397Z,24.15
2018-06-24T16:52:16.480Z,23.95
2018-06-24T16:54:44.310Z,23.94
2018-06-24T16:57:12.150Z,23.81
2018-06-24T16:59:40.011Z,23.70
2018-06-24T17:02:07.843Z,23.62
2018-06-24T17:04:35.719Z,23.49
2018-06-24T17:07:03.553Z,23.38
2018-06-24T17:09:31.389Z,23.46
2018-06-24T17:11:59.242Z,23.43
2018-06-24T17:14:27.063Z,23.30
2018-06-24T17:16:54.908Z,23.20
2018-06-24T17:19:22.728Z,23.22
2018-06-24T17:21:50.555Z,23.06
2018-06-24T17:24:18.439Z,22.91
2018-06-24T17:26:46.248Z,22.58
2018-06-24T17:29:14.058Z,22.53
2018-06-24T17:31:41.930Z,22.44
2018-06-24T17:34:09.781Z,22.47
2018-06-24T17:36:37.936Z,22.60
2018-06-24T17:39:08.785Z,22.62
2018-06-24T17:41:36.619Z,22.54
2018-06-24T17:44:04.492Z,22.37
2018-06-24T17:46:32.337Z,22.19
2018-06-24T17:49:00.233Z,22.19
2018-06-24T17:51:28.075Z,22.07
2018-06-24T17:53:55.878Z,22.12
2018-06-24T17:56:23.766Z,22.17
2018-06-24T17:58:51.628Z,21.94
2018-06-24T18:01:19.494Z,22.02
2018-06-24T18:03:47.330Z,22.06
2018-06-24T18:06:15.211Z,22.16
2018-06-24T18:08:43.067Z,22.26
2018-06-24T18:11:10.936Z,22.19
2018-06-24T18:13:38.836Z,22.14
2018-06-24T18:16:06.715Z,21.99
2018-06-24T18:18:34.742Z,22.04
2018-06-24T18:21:02.592Z,22.08
2018-06-24T18:23:30.427Z,22.04
2018-06-24T18:25:58.278Z,22.01
2018-06-24T18:28:26.139Z,21.95
2018-06-24T18:30:53.970Z,21.61
2018-06-24T18:33:21.839Z,21.45
2018-06-24T18:35:49.660Z,21.51
2018-06-24T18:38:17.508Z,21.46
2018-06-24T18:40:45.348Z,21.44
2018-06-24T18:43:13.184Z,21.45
2018-06-24T18:45:41.021Z,21.49
2018-06-24T18:48:08.866Z,21.51
2018-06-24T18:50:36.698Z,21.50
2018-06-24T18:53:04.557Z,21.35
2018-06-24T18:55:32.430Z,20.95
2018-06-24T18:58:00.658Z,20.85
2018-06-24T19:00:28.527Z,20.79
2018-06-24T19:02:56.441Z,20.78
2018-06-24T19:05:24.279Z,20.81
2018-06-24T19:07:52.173Z,20.94
2018-06-24T19:10:20.052Z,21.04
2018-06-24T19:12:47.907Z,21.04
2018-06-24T19:15:15.776Z,21.01
2018-06-24T19:17:43.604Z,20.89
2018-06-24T19:20:11.458Z,20.74
2018-06-24T19:22:39.318Z,20.54
2018-06-24T19:25:07.191Z,20.24
2018-06-24T19:27:35.087Z,19.99
2018-06-24T19:30:02.963Z,19.76
2018-06-24T19:32:30.831Z,19.37
2018-06-24T19:34:58.683Z,19.30
2018-06-24T19:37:26.535Z,19.42
2018-06-24T19:39:54.388Z,19.51
2018-06-24T19:42:24.297Z,19.60
2018-06-24T19:44:52.571Z,19.70
2018-06-24T19:47:20.463Z,19.78
2018-06-24T19:49:48.300Z,19.86
2018-06-24T19:52:16.687Z,19.84
2018-06-24T19:54:45.070Z,19.98
2018-06-24T19:57:13.388Z,20.16
2018-06-24T19:59:42.089Z,20.28
2018-06-24T20:02:10.583Z,20.31
2018-06-24T20:04:38.487Z,20.36
2018-06-24T20:07:06.376Z,20.31
2018-06-24T20:09:34.220Z,20.32
2018-06-24T20:12:02.140Z,20.43
2018-06-24T20:14:30.003Z,20.51
2018-06-24T20:16:57.888Z,20.48
2018-06-24T20:19:25.736Z,20.59
2018-06-24T20:21:53.643Z,20.58
2018-06-24T20:24:21.555Z,20.48
2018-06-24T20:26:49.428Z,20.40
2018-06-24T20:29:17.261Z,20.44
2018-06-24T20:31:45.127Z,20.47
2018-06-24T20:34:13.875Z,20.53
2018-06-24T20:36:41.740Z,20.67
2018-06-24T20:39:09.692Z,20.51
2018-06-24T20:41:37.652Z,20.57
2018-06-24T20:44:05.598Z,20.41
2018-06-24T20:46:34.006Z,20.40
2018-06-24T20:49:01.838Z,20.52
2018-06-24T20:51:29.740Z,20.38
2018-06-24T20:53:57.578Z,20.27
2018-06-24T20:56:25.432Z,20.32
2018-06-24T20:58:53.279Z,20.32
2018-06-24T21:01:21.148Z,20.44
2018-06-24T21:03:50.348Z,20.34
2018-06-24T21:06:19.318Z,20.36
2018-06-24T21:08:47.154Z,20.38
2018-06-24T21:11:16.681Z,20.24
2018-06-24T21:13:50.439Z,20.16
2018-06-24T21:16:21.848Z,20.11
2018-06-24T21:18:49.856Z,20.24
2018-06-24T21:21:17.867Z,20.21
2018-06-24T21:23:46.195Z,20.23
2018-06-24T21:26:14.126Z,20.13
2018-06-24T21:28:42.087Z,20.11
2018-06-24T21:31:09.939Z,20.15
2018-06-24T21:33:37.826Z,20.10
2018-06-24T21:36:05.668Z,20.04
2018-06-24T21:38:33.559Z,20.06
2018-06-24T21:41:01.445Z,20.00
2018-06-24T21:43:29.381Z,19.89
2018-06-24T21:45:57.165Z,19.91
2018-06-24T21:48:25.038Z,19.75
2018-06-24T21:50:52.862Z,19.68
2018-06-24T21:53:20.750Z,19.72
2018-06-24T21:55:48.604Z,19.66
2018-06-24T21:58:16.441Z,19.71
2018-06-24T22:00:44.274Z,19.75
2018-06-24T22:03:12.166Z,19.71
2018-06-24T22:05:40.028Z,19.58
2018-06-24T22:08:07.867Z,19.41
2018-06-24T22:10:35.704Z,19.38
2018-06-24T22:13:03.597Z,19.13
2018-06-24T22:15:31.447Z,19.04
2018-06-24T22:17:59.315Z,18.99
2018-06-24T22:20:27.172Z,18.85
2018-06-24T22:22:54.999Z,18.75
2018-06-24T22:25:22.826Z,18.72
2018-06-24T22:27:50.642Z,18.67
2018-06-24T22:30:18.466Z,18.64
2018-06-24T22:32:46.368Z,18.57
2018-06-24T22:35:14.219Z,18.42
2018-06-24T22:37:42.073Z,18.36
2018-06-24T22:40:09.924Z,18.31
2018-06-24T22:42:37.755Z,18.34
2018-06-24T22:45:05.619Z,18.35
2018-06-24T22:47:33.463Z,18.31
2018-06-24T22:50:01.320Z,18.35
2018-06-24T22:52:29.164Z,18.45
2018-06-24T22:54:57.049Z,18.54
2018-06-24T22:57:24.930Z,18.50
2018-06-24T23:00:24.546Z,18.51
2018-06-24T23:02:52.303Z,18.59
2018-06-24T23:05:20.013Z,18.48
2018-06-24T23:07:47.871Z,18.54
2018-06-24T23:10:15.697Z,18.51
2018-06-24T23:12:43.647Z,18.52
2018-06-24T23:15:11.942Z,18.58
2018-06-24T23:17:40.167Z,18.58
2018-06-24T23:20:08.818Z,18.58
2018-06-24T23:22:36.893Z,18.59
2018-06-24T23:25:05.019Z,18.57
2018-06-24T23:27:32.858Z,18.57
2018-06-24T23:30:00.798Z,18.55
2018-06-24T23:32:28.650Z,18.61
2018-06-24T23:34:56.518Z,18.58
2018-06-24T23:37:24.360Z,18.46
2018-06-24T23:39:52.227Z,18.37
2018-06-24T23:42:20.116Z,18.38
2018-06-24T23:44:47.952Z,18.36
2018-06-24T23:47:15.798Z,18.35
2018-06-24T23:49:43.663Z,18.46
2018-06-24T23:52:11.537Z,18.53
2018-06-24T23:54:39.380Z,18.42
2018-06-24T23:57:07.214Z,18.45
2018-06-24T23:59:35.061Z,18.48
